sensor_id;sensor_type;location;lat;lon;timestamp;temperature;humidity
26583;DHT22;14230;45.382;10.998;2022-09-03T00:01:41;21.10;99.90
26583;DHT22;14230;45.382;10.998;2022-09-03T00:07:07;21.20;99.90
26583;DHT22;14230;45.382;10.998;2022-09-03T00:09:45;21.00;99.90
26583;DHT22;14230;45.382;10.998;2022-09-03T00:12:20;20.90;99.90
26583;DHT22;14230;45.382;10.998;2022-09-03T00:14:56;20.90;99.90
26583;DHT22;14230;45.382;10.998;2022-09-03T00:17:31;20.80;99.90
26583;DHT22;14230;45.382;10.998;2022-09-03T00:20:06;20.80;99.90
26583;DHT22;14230;45.382;10.998;2022-09-03T00:22:38;20.70;99.90
26583;DHT22;14230;45.382;10.998;2022-09-03T00:25:11;20.70;99.90
26583;DHT22;14230;45.382;10.998;2022-09-03T00:27:41;20.70;99.90
26583;DHT22;14230;45.382;10.998;2022-09-03T00:30:12;20.70;99.90
26583;DHT22;14230;45.382;10.998;2022-09-03T00:35:34;20.70;99.90
26583;DHT22;14230;45.382;10.998;2022-09-03T00:38:04;20.70;99.90
26583;DHT22;14230;45.382;10.998;2022-09-03T00:46:53;20.50;99.90
26583;DHT22;14230;45.382;10.998;2022-09-03T00:52:17;20.20;99.90
26583;DHT22;14230;45.382;10.998;2022-09-03T01:00:28;20.00;99.90
26583;DHT22;14230;45.382;10.998;2022-09-03T01:03:09;20.00;99.90
26583;DHT22;14230;45.382;10.998;2022-09-03T01:09:05;20.00;99.90
26583;DHT22;14230;45.382;10.998;2022-09-03T01:17:20;20.20;99.90
26583;DHT22;14230;45.382;10.998;2022-09-03T01:20:11;20.40;99.90
26583;DHT22;14230;45.382;10.998;2022-09-03T01:33:49;20.70;99.90
26583;DHT22;14230;45.382;10.998;2022-09-03T01:39:28;20.60;99.90
26583;DHT22;14230;45.382;10.998;2022-09-03T01:50:47;20.60;99.90
26583;DHT22;14230;45.382;10.998;2022-09-03T01:59:13;20.50;99.90
26583;DHT22;14230;45.382;10.998;2022-09-03T02:01:58;20.50;99.90
26583;DHT22;14230;45.382;10.998;2022-09-03T02:04:28;20.40;99.90
26583;DHT22;14230;45.382;10.998;2022-09-03T02:06:56;20.40;99.90
26583;DHT22;14230;45.382;10.998;2022-09-03T02:09:27;20.30;99.90
26583;DHT22;14230;45.382;10.998;2022-09-03T02:12:07;20.20;99.90
26583;DHT22;14230;45.382;10.998;2022-09-03T02:14:37;20.20;99.90
26583;DHT22;14230;45.382;10.998;2022-09-03T02:17:06;20.10;99.90
26583;DHT22;14230;45.382;10.998;2022-09-03T02:19:35;19.90;99.90
26583;DHT22;14230;45.382;10.998;2022-09-03T02:22:04;19.90;99.90
26583;DHT22;14230;45.382;10.998;2022-09-03T02:24:32;19.80;99.90
26583;DHT22;14230;45.382;10.998;2022-09-03T02:26:59;19.70;99.90
26583;DHT22;14230;45.382;10.998;2022-09-03T02:29:27;19.60;99.90
26583;DHT22;14230;45.382;10.998;2022-09-03T02:31:54;19.60;99.90
26583;DHT22;14230;45.382;10.998;2022-09-03T02:34:21;19.50;99.90
26583;DHT22;14230;45.382;10.998;2022-09-03T02:36:50;19.50;99.90
26583;DHT22;14230;45.382;10.998;2022-09-03T02:39:18;19.50;99.90
26583;DHT22;14230;45.382;10.998;2022-09-03T02:41:53;19.40;99.90
26583;DHT22;14230;45.382;10.998;2022-09-03T02:44:25;19.50;99.90
26583;DHT22;14230;45.382;10.998;2022-09-03T02:46:58;19.40;99.90
26583;DHT22;14230;45.382;10.998;2022-09-03T02:49:25;19.50;99.90
26583;DHT22;14230;45.382;10.998;2022-09-03T02:52:06;19.50;99.90
26583;DHT22;14230;45.382;10.998;2022-09-03T02:54:36;19.50;99.90
26583;DHT22;14230;45.382;10.998;2022-09-03T02:57:07;19.50;99.90
26583;DHT22;14230;45.382;10.998;2022-09-03T02:59:35;19.50;99.90
26583;DHT22;14230;45.382;10.998;2022-09-03T03:02:03;19.50;99.90
26583;DHT22;14230;45.382;10.998;2022-09-03T03:04:31;19.50;99.90
26583;DHT22;14230;45.382;10.998;2022-09-03T03:06:59;19.50;99.90
26583;DHT22;14230;45.382;10.998;2022-09-03T03:09:26;19.60;99.90
26583;DHT22;14230;45.382;10.998;2022-09-03T03:11:55;19.70;99.90
26583;DHT22;14230;45.382;10.998;2022-09-03T03:14:22;19.80;99.90
26583;DHT22;14230;45.382;10.998;2022-09-03T03:16:50;19.80;99.90
26583;DHT22;14230;45.382;10.998;2022-09-03T03:19:18;19.90;99.90
26583;DHT22;14230;45.382;10.998;2022-09-03T03:21:45;19.90;99.90
26583;DHT22;14230;45.382;10.998;2022-09-03T03:24:13;20.00;99.90
26583;DHT22;14230;45.382;10.998;2022-09-03T03:26:41;20.00;99.90
26583;DHT22;14230;45.382;10.998;2022-09-03T03:29:14;19.90;99.90
26583;DHT22;14230;45.382;10.998;2022-09-03T03:31:42;20.00;99.90
26583;DHT22;14230;45.382;10.998;2022-09-03T03:34:09;20.00;99.90
26583;DHT22;14230;45.382;10.998;2022-09-03T03:36:37;20.00;99.90
26583;DHT22;14230;45.382;10.998;2022-09-03T03:39:04;20.10;99.90
26583;DHT22;14230;45.382;10.998;2022-09-03T03:41:34;20.10;99.90
26583;DHT22;14230;45.382;10.998;2022-09-03T03:44:04;20.10;99.90
26583;DHT22;14230;45.382;10.998;2022-09-03T03:46:39;20.10;99.90
26583;DHT22;14230;45.382;10.998;2022-09-03T03:49:07;20.10;99.90
26583;DHT22;14230;45.382;10.998;2022-09-03T03:51:35;20.10;99.90
26583;DHT22;14230;45.382;10.998;2022-09-03T03:54:04;20.10;99.90
26583;DHT22;14230;45.382;10.998;2022-09-03T03:56:33;20.00;99.90
26583;DHT22;14230;45.382;10.998;2022-09-03T03:59:01;20.00;99.90
26583;DHT22;14230;45.382;10.998;2022-09-03T04:01:29;19.90;99.90
26583;DHT22;14230;45.382;10.998;2022-09-03T04:03:57;19.90;99.90
26583;DHT22;14230;45.382;10.998;2022-09-03T04:06:27;19.90;99.90
26583;DHT22;14230;45.382;10.998;2022-09-03T04:08:55;19.90;99.90
26583;DHT22;14230;45.382;10.998;2022-09-03T04:11:23;19.70;99.90
26583;DHT22;14230;45.382;10.998;2022-09-03T04:13:51;19.70;99.90
26583;DHT22;14230;45.382;10.998;2022-09-03T04:16:20;19.60;99.90
26583;DHT22;14230;45.382;10.998;2022-09-03T04:18:49;19.60;99.90
26583;DHT22;14230;45.382;10.998;2022-09-03T04:21:19;19.50;99.90
26583;DHT22;14230;45.382;10.998;2022-09-03T04:23:48;19.50;99.90
26583;DHT22;14230;45.382;10.998;2022-09-03T04:26:18;19.40;99.90
26583;DHT22;14230;45.382;10.998;2022-09-03T04:28:46;19.40;99.90
26583;DHT22;14230;45.382;10.998;2022-09-03T04:31:18;19.40;99.90
26583;DHT22;14230;45.382;10.998;2022-09-03T04:33:46;19.50;99.90
26583;DHT22;14230;45.382;10.998;2022-09-03T04:36:16;19.50;99.90
26583;DHT22;14230;45.382;10.998;2022-09-03T04:38:45;19.50;99.90
26583;DHT22;14230;45.382;10.998;2022-09-03T04:41:18;19.50;99.90
26583;DHT22;14230;45.382;10.998;2022-09-03T04:43:46;19.50;99.90
26583;DHT22;14230;45.382;10.998;2022-09-03T04:46:19;19.50;99.90
26583;DHT22;14230;45.382;10.998;2022-09-03T04:48:48;19.50;99.90
26583;DHT22;14230;45.382;10.998;2022-09-03T04:51:20;19.50;99.90
26583;DHT22;14230;45.382;10.998;2022-09-03T04:53:53;19.50;99.90
26583;DHT22;14230;45.382;10.998;2022-09-03T04:56:25;19.70;99.90
26583;DHT22;14230;45.382;10.998;2022-09-03T04:59:04;19.70;99.90
26583;DHT22;14230;45.382;10.998;2022-09-03T05:01:33;19.80;99.90
26583;DHT22;14230;45.382;10.998;2022-09-03T05:04:02;19.80;99.90
26583;DHT22;14230;45.382;10.998;2022-09-03T05:06:31;19.90;99.90
26583;DHT22;14230;45.382;10.998;2022-09-03T05:08:59;20.00;99.90
26583;DHT22;14230;45.382;10.998;2022-09-03T05:11:27;20.00;99.90
26583;DHT22;14230;45.382;10.998;2022-09-03T05:13:57;20.10;99.90
26583;DHT22;14230;45.382;10.998;2022-09-03T05:16:26;20.20;99.90
26583;DHT22;14230;45.382;10.998;2022-09-03T05:18:57;20.30;99.90
26583;DHT22;14230;45.382;10.998;2022-09-03T05:21:28;20.40;99.90
26583;DHT22;14230;45.382;10.998;2022-09-03T05:23:56;20.50;99.90
26583;DHT22;14230;45.382;10.998;2022-09-03T05:26:28;20.60;99.90
26583;DHT22;14230;45.382;10.998;2022-09-03T05:28:57;20.60;99.90
26583;DHT22;14230;45.382;10.998;2022-09-03T05:31:28;20.50;99.90
26583;DHT22;14230;45.382;10.998;2022-09-03T05:34:00;20.60;99.90
26583;DHT22;14230;45.382;10.998;2022-09-03T05:36:34;20.60;99.90
26583;DHT22;14230;45.382;10.998;2022-09-03T05:39:02;20.70;99.90
26583;DHT22;14230;45.382;10.998;2022-09-03T05:41:30;20.80;99.90
26583;DHT22;14230;45.382;10.998;2022-09-03T05:43:59;20.80;99.90
26583;DHT22;14230;45.382;10.998;2022-09-03T05:46:29;20.80;99.90
26583;DHT22;14230;45.382;10.998;2022-09-03T05:49:02;20.90;99.90
26583;DHT22;14230;45.382;10.998;2022-09-03T05:51:30;20.90;99.90
26583;DHT22;14230;45.382;10.998;2022-09-03T05:53:58;21.00;99.90
26583;DHT22;14230;45.382;10.998;2022-09-03T05:56:29;21.20;99.90
26583;DHT22;14230;45.382;10.998;2022-09-03T05:58:59;21.40;99.90
26583;DHT22;14230;45.382;10.998;2022-09-03T06:01:30;21.60;99.90
26583;DHT22;14230;45.382;10.998;2022-09-03T06:04:03;21.70;99.90
26583;DHT22;14230;45.382;10.998;2022-09-03T06:06:33;21.80;99.90
26583;DHT22;14230;45.382;10.998;2022-09-03T06:09:03;22.00;99.90
26583;DHT22;14230;45.382;10.998;2022-09-03T06:11:35;22.20;99.90
26583;DHT22;14230;45.382;10.998;2022-09-03T06:14:06;22.30;99.90
26583;DHT22;14230;45.382;10.998;2022-09-03T06:16:40;22.40;99.90
26583;DHT22;14230;45.382;10.998;2022-09-03T06:19:09;22.60;99.90
26583;DHT22;14230;45.382;10.998;2022-09-03T06:21:38;22.70;99.90
26583;DHT22;14230;45.382;10.998;2022-09-03T06:24:14;23.00;99.90
26583;DHT22;14230;45.382;10.998;2022-09-03T06:26:42;23.40;99.90
26583;DHT22;14230;45.382;10.998;2022-09-03T06:29:12;23.60;99.90
26583;DHT22;14230;45.382;10.998;2022-09-03T06:31:39;24.00;99.90
26583;DHT22;14230;45.382;10.998;2022-09-03T06:34:07;24.30;99.90
26583;DHT22;14230;45.382;10.998;2022-09-03T06:36:34;24.70;99.90
26583;DHT22;14230;45.382;10.998;2022-09-03T06:39:02;25.10;99.90
26583;DHT22;14230;45.382;10.998;2022-09-03T06:41:31;25.50;99.90
26583;DHT22;14230;45.382;10.998;2022-09-03T06:44:03;26.10;99.90
26583;DHT22;14230;45.382;10.998;2022-09-03T06:46:33;27.20;99.90
26583;DHT22;14230;45.382;10.998;2022-09-03T06:49:01;28.30;99.90
26583;DHT22;14230;45.382;10.998;2022-09-03T06:51:30;29.50;99.90
26583;DHT22;14230;45.382;10.998;2022-09-03T06:54:00;29.90;99.90
26583;DHT22;14230;45.382;10.998;2022-09-03T06:56:28;30.20;99.90
26583;DHT22;14230;45.382;10.998;2022-09-03T06:59:02;31.10;99.90
26583;DHT22;14230;45.382;10.998;2022-09-03T07:01:31;31.40;99.90
26583;DHT22;14230;45.382;10.998;2022-09-03T07:04:01;31.50;99.90
26583;DHT22;14230;45.382;10.998;2022-09-03T07:06:32;31.60;99.90
26583;DHT22;14230;45.382;10.998;2022-09-03T07:09:00;31.80;99.90
26583;DHT22;14230;45.382;10.998;2022-09-03T07:11:29;31.30;99.90
26583;DHT22;14230;45.382;10.998;2022-09-03T07:13:58;31.20;99.90
26583;DHT22;14230;45.382;10.998;2022-09-03T07:16:31;30.60;99.90
26583;DHT22;14230;45.382;10.998;2022-09-03T07:18:59;30.20;99.90
26583;DHT22;14230;45.382;10.998;2022-09-03T07:21:28;30.00;99.90
26583;DHT22;14230;45.382;10.998;2022-09-03T07:23:56;30.10;99.90
26583;DHT22;14230;45.382;10.998;2022-09-03T07:26:26;31.10;99.90
26583;DHT22;14230;45.382;10.998;2022-09-03T07:28:58;32.00;99.90
26583;DHT22;14230;45.382;10.998;2022-09-03T07:31:32;32.00;99.90
26583;DHT22;14230;45.382;10.998;2022-09-03T07:34:02;32.60;99.60
26583;DHT22;14230;45.382;10.998;2022-09-03T07:36:37;32.80;98.80
26583;DHT22;14230;45.382;10.998;2022-09-03T07:39:05;32.60;99.00
26583;DHT22;14230;45.382;10.998;2022-09-03T07:41:32;30.90;99.90
26583;DHT22;14230;45.382;10.998;2022-09-03T07:44:00;30.50;99.90
26583;DHT22;14230;45.382;10.998;2022-09-03T07:46:34;30.70;99.90
26583;DHT22;14230;45.382;10.998;2022-09-03T07:49:03;30.20;99.90
26583;DHT22;14230;45.382;10.998;2022-09-03T07:51:34;29.70;99.90
26583;DHT22;14230;45.382;10.998;2022-09-03T07:54:04;29.50;99.90
26583;DHT22;14230;45.382;10.998;2022-09-03T07:56:34;29.70;99.90
26583;DHT22;14230;45.382;10.998;2022-09-03T07:59:03;31.10;99.90
26583;DHT22;14230;45.382;10.998;2022-09-03T08:01:32;31.80;99.90
26583;DHT22;14230;45.382;10.998;2022-09-03T08:04:01;32.70;99.90
26583;DHT22;14230;45.382;10.998;2022-09-03T08:06:31;32.80;98.40
26583;DHT22;14230;45.382;10.998;2022-09-03T08:09:05;32.50;98.10
26583;DHT22;14230;45.382;10.998;2022-09-03T08:11:36;32.70;98.80
26583;DHT22;14230;45.382;10.998;2022-09-03T08:14:06;34.20;97.10
26583;DHT22;14230;45.382;10.998;2022-09-03T08:16:40;34.60;95.10
26583;DHT22;14230;45.382;10.998;2022-09-03T08:19:10;34.60;93.60
26583;DHT22;14230;45.382;10.998;2022-09-03T08:21:40;34.40;94.00
26583;DHT22;14230;45.382;10.998;2022-09-03T08:24:11;34.30;93.00
26583;DHT22;14230;45.382;10.998;2022-09-03T08:26:40;34.30;93.90
26583;DHT22;14230;45.382;10.998;2022-09-03T08:29:18;34.10;93.80
26583;DHT22;14230;45.382;10.998;2022-09-03T08:31:45;34.00;93.40
26583;DHT22;14230;45.382;10.998;2022-09-03T08:34:13;33.70;93.50
26583;DHT22;14230;45.382;10.998;2022-09-03T08:36:43;33.40;93.30
26583;DHT22;14230;45.382;10.998;2022-09-03T08:39:12;33.20;92.90
26583;DHT22;14230;45.382;10.998;2022-09-03T08:42:07;32.90;93.60
26583;DHT22;14230;45.382;10.998;2022-09-03T08:44:59;32.90;93.50
26583;DHT22;14230;45.382;10.998;2022-09-03T08:50:28;34.40;91.40
26583;DHT22;14230;45.382;10.998;2022-09-03T08:53:16;34.40;91.20
26583;DHT22;14230;45.382;10.998;2022-09-03T08:55:55;34.50;90.80
26583;DHT22;14230;45.382;10.998;2022-09-03T08:58:26;34.60;90.00
26583;DHT22;14230;45.382;10.998;2022-09-03T09:11:59;35.00;89.50
26583;DHT22;14230;45.382;10.998;2022-09-03T09:14:51;34.40;90.60
26583;DHT22;14230;45.382;10.998;2022-09-03T09:20:01;33.30;95.30
26583;DHT22;14230;45.382;10.998;2022-09-03T09:22:46;32.20;94.80
26583;DHT22;14230;45.382;10.998;2022-09-03T09:25:21;30.70;97.30
26583;DHT22;14230;45.382;10.998;2022-09-03T09:28:06;29.90;99.20
26583;DHT22;14230;45.382;10.998;2022-09-03T09:30:38;30.10;99.80
26583;DHT22;14230;45.382;10.998;2022-09-03T09:33:06;30.80;98.40
26583;DHT22;14230;45.382;10.998;2022-09-03T09:35:33;30.90;99.50
26583;DHT22;14230;45.382;10.998;2022-09-03T09:38:01;31.20;99.30
26583;DHT22;14230;45.382;10.998;2022-09-03T09:40:43;31.50;98.10
26583;DHT22;14230;45.382;10.998;2022-09-03T09:43:17;31.80;97.20
26583;DHT22;14230;45.382;10.998;2022-09-03T09:45:49;32.40;97.10
26583;DHT22;14230;45.382;10.998;2022-09-03T09:48:27;32.50;96.30
26583;DHT22;14230;45.382;10.998;2022-09-03T09:51:24;32.70;95.90
26583;DHT22;14230;45.382;10.998;2022-09-03T09:54:12;32.90;96.60
26583;DHT22;14230;45.382;10.998;2022-09-03T09:56:42;32.70;97.50
26583;DHT22;14230;45.382;10.998;2022-09-03T09:59:12;32.70;96.60
26583;DHT22;14230;45.382;10.998;2022-09-03T10:01:41;32.70;96.50
26583;DHT22;14230;45.382;10.998;2022-09-03T10:04:34;33.00;96.10
26583;DHT22;14230;45.382;10.998;2022-09-03T10:07:30;33.30;95.10
26583;DHT22;14230;45.382;10.998;2022-09-03T10:12:57;33.20;94.80
26583;DHT22;14230;45.382;10.998;2022-09-03T10:18:18;33.10;95.70
26583;DHT22;14230;45.382;10.998;2022-09-03T10:21:05;33.60;94.50
26583;DHT22;14230;45.382;10.998;2022-09-03T10:23:53;33.70;94.10
26583;DHT22;14230;45.382;10.998;2022-09-03T10:26:23;33.90;95.10
26583;DHT22;14230;45.382;10.998;2022-09-03T10:29:01;33.60;95.70
26583;DHT22;14230;45.382;10.998;2022-09-03T10:31:58;33.10;94.90
26583;DHT22;14230;45.382;10.998;2022-09-03T10:34:37;33.90;93.50
26583;DHT22;14230;45.382;10.998;2022-09-03T10:37:34;34.30;92.90
26583;DHT22;14230;45.382;10.998;2022-09-03T10:50:43;32.90;94.40
26583;DHT22;14230;45.382;10.998;2022-09-03T10:56:10;30.40;97.10
26583;DHT22;14230;45.382;10.998;2022-09-03T11:04:25;28.90;99.90
26583;DHT22;14230;45.382;10.998;2022-09-03T11:06:59;28.80;99.90
26583;DHT22;14230;45.382;10.998;2022-09-03T11:12:22;28.70;99.90
26583;DHT22;14230;45.382;10.998;2022-09-03T11:15:00;28.40;99.90
26583;DHT22;14230;45.382;10.998;2022-09-03T11:17:39;28.40;99.90
26583;DHT22;14230;45.382;10.998;2022-09-03T11:20:20;28.20;99.90
26583;DHT22;14230;45.382;10.998;2022-09-03T11:22:52;28.10;99.90
26583;DHT22;14230;45.382;10.998;2022-09-03T11:25:21;28.00;99.90
26583;DHT22;14230;45.382;10.998;2022-09-03T11:31:04;28.30;99.90
26583;DHT22;14230;45.382;10.998;2022-09-03T11:33:33;28.00;99.90
26583;DHT22;14230;45.382;10.998;2022-09-03T11:36:05;28.10;99.90
26583;DHT22;14230;45.382;10.998;2022-09-03T11:38:33;28.10;99.90
26583;DHT22;14230;45.382;10.998;2022-09-03T11:43:49;28.30;99.90
26583;DHT22;14230;45.382;10.998;2022-09-03T11:49:08;28.60;99.90
26583;DHT22;14230;45.382;10.998;2022-09-03T11:51:38;28.60;99.90
26583;DHT22;14230;45.382;10.998;2022-09-03T11:56:47;27.90;99.90
26583;DHT22;14230;45.382;10.998;2022-09-03T11:59:22;27.70;99.90
26583;DHT22;14230;45.382;10.998;2022-09-03T12:01:57;27.50;99.90
26583;DHT22;14230;45.382;10.998;2022-09-03T12:04:33;27.60;99.90
26583;DHT22;14230;45.382;10.998;2022-09-03T12:07:15;27.80;99.90
26583;DHT22;14230;45.382;10.998;2022-09-03T12:18:17;27.70;99.90
26583;DHT22;14230;45.382;10.998;2022-09-03T12:26:06;27.80;99.90
26583;DHT22;14230;45.382;10.998;2022-09-03T12:28:36;27.70;99.90
26583;DHT22;14230;45.382;10.998;2022-09-03T12:31:13;27.70;99.90
26583;DHT22;14230;45.382;10.998;2022-09-03T12:33:54;27.80;99.90
26583;DHT22;14230;45.382;10.998;2022-09-03T12:36:22;27.90;99.90
26583;DHT22;14230;45.382;10.998;2022-09-03T12:38:50;28.10;99.90
26583;DHT22;14230;45.382;10.998;2022-09-03T12:41:38;28.20;99.90
26583;DHT22;14230;45.382;10.998;2022-09-03T12:44:05;28.00;99.90
26583;DHT22;14230;45.382;10.998;2022-09-03T12:46:33;27.90;99.90
26583;DHT22;14230;45.382;10.998;2022-09-03T12:49:04;27.90;99.90
26583;DHT22;14230;45.382;10.998;2022-09-03T12:51:59;28.00;99.90
26583;DHT22;14230;45.382;10.998;2022-09-03T12:54:34;28.00;99.90
26583;DHT22;14230;45.382;10.998;2022-09-03T12:57:04;28.00;99.90
26583;DHT22;14230;45.382;10.998;2022-09-03T12:59:33;28.00;99.90
26583;DHT22;14230;45.382;10.998;2022-09-03T13:02:11;28.00;99.90
26583;DHT22;14230;45.382;10.998;2022-09-03T13:04:41;28.00;99.90
26583;DHT22;14230;45.382;10.998;2022-09-03T13:09:50;28.10;99.90
26583;DHT22;14230;45.382;10.998;2022-09-03T13:12:30;28.00;99.90
26583;DHT22;14230;45.382;10.998;2022-09-03T13:15:04;27.90;99.90
26583;DHT22;14230;45.382;10.998;2022-09-03T13:18:18;27.70;99.90
26583;DHT22;14230;45.382;10.998;2022-09-03T13:20:26;27.60;99.90
26583;DHT22;14230;45.382;10.998;2022-09-03T13:33:52;27.80;99.90
26583;DHT22;14230;45.382;10.998;2022-09-03T13:36:29;27.80;99.90
26583;DHT22;14230;45.382;10.998;2022-09-03T13:39:15;28.00;99.90
26583;DHT22;14230;45.382;10.998;2022-09-03T13:41:49;28.20;99.90
26583;DHT22;14230;45.382;10.998;2022-09-03T13:44:29;28.20;99.90
26583;DHT22;14230;45.382;10.998;2022-09-03T13:47:04;28.10;99.90
26583;DHT22;14230;45.382;10.998;2022-09-03T13:49:55;27.90;99.90
26583;DHT22;14230;45.382;10.998;2022-09-03T13:53:01;27.90;99.90
26583;DHT22;14230;45.382;10.998;2022-09-03T13:55:32;27.90;99.90
26583;DHT22;14230;45.382;10.998;2022-09-03T13:58:09;27.90;99.90
26583;DHT22;14230;45.382;10.998;2022-09-03T14:00:47;28.00;99.90
26583;DHT22;14230;45.382;10.998;2022-09-03T14:14:59;27.80;99.90
26583;DHT22;14230;45.382;10.998;2022-09-03T14:18:01;27.60;99.90
26583;DHT22;14230;45.382;10.998;2022-09-03T14:26:26;27.40;99.90
26583;DHT22;14230;45.382;10.998;2022-09-03T14:49:23;26.70;99.90
26583;DHT22;14230;45.382;10.998;2022-09-03T15:01:00;26.70;99.90
26583;DHT22;14230;45.382;10.998;2022-09-03T15:12:18;27.10;99.90
26583;DHT22;14230;45.382;10.998;2022-09-03T15:14:54;27.20;99.90
26583;DHT22;14230;45.382;10.998;2022-09-03T15:25:48;27.00;99.90
26583;DHT22;14230;45.382;10.998;2022-09-03T15:31:21;26.90;99.90
26583;DHT22;14230;45.382;10.998;2022-09-03T15:34:14;26.90;99.90
26583;DHT22;14230;45.382;10.998;2022-09-03T15:36:50;26.70;99.90
26583;DHT22;14230;45.382;10.998;2022-09-03T15:39:32;26.70;99.90
26583;DHT22;14230;45.382;10.998;2022-09-03T15:42:05;26.70;99.90
26583;DHT22;14230;45.382;10.998;2022-09-03T15:44:40;26.60;99.90
26583;DHT22;14230;45.382;10.998;2022-09-03T15:47:12;26.70;99.90
26583;DHT22;14230;45.382;10.998;2022-09-03T15:53:20;26.70;99.90
26583;DHT22;14230;45.382;10.998;2022-09-03T15:58:42;26.60;99.90
26583;DHT22;14230;45.382;10.998;2022-09-03T16:01:18;26.40;99.90
26583;DHT22;14230;45.382;10.998;2022-09-03T16:04:01;26.40;99.90
26583;DHT22;14230;45.382;10.998;2022-09-03T16:09:50;26.40;99.90
26583;DHT22;14230;45.382;10.998;2022-09-03T16:15:56;26.30;99.90
26583;DHT22;14230;45.382;10.998;2022-09-03T16:18:34;26.30;99.90
26583;DHT22;14230;45.382;10.998;2022-09-03T16:21:05;26.20;99.90
26583;DHT22;14230;45.382;10.998;2022-09-03T16:26:34;26.10;99.90
26583;DHT22;14230;45.382;10.998;2022-09-03T16:29:08;26.00;99.90
26583;DHT22;14230;45.382;10.998;2022-09-03T16:35:05;26.00;99.90
26583;DHT22;14230;45.382;10.998;2022-09-03T16:40:44;26.10;99.90
26583;DHT22;14230;45.382;10.998;2022-09-03T16:43:43;26.10;99.90
26583;DHT22;14230;45.382;10.998;2022-09-03T16:52:11;26.00;99.90
26583;DHT22;14230;45.382;10.998;2022-09-03T16:55:05;25.90;99.90
26583;DHT22;14230;45.382;10.998;2022-09-03T17:00:19;25.70;99.90
26583;DHT22;14230;45.382;10.998;2022-09-03T17:02:52;25.70;99.90
26583;DHT22;14230;45.382;10.998;2022-09-03T17:10:53;25.60;99.90
26583;DHT22;14230;45.382;10.998;2022-09-03T17:13:45;25.50;99.90
26583;DHT22;14230;45.382;10.998;2022-09-03T17:19:10;25.40;99.90
26583;DHT22;14230;45.382;10.998;2022-09-03T17:24:39;25.20;99.90
26583;DHT22;14230;45.382;10.998;2022-09-03T17:36:40;25.20;99.90
26583;DHT22;14230;45.382;10.998;2022-09-03T17:39:10;25.10;99.90
26583;DHT22;14230;45.382;10.998;2022-09-03T17:41:51;25.10;99.90
26583;DHT22;14230;45.382;10.998;2022-09-03T17:50:23;24.90;99.90
26583;DHT22;14230;45.382;10.998;2022-09-03T17:52:59;24.80;99.90
26583;DHT22;14230;45.382;10.998;2022-09-03T17:55:35;24.70;99.90
26583;DHT22;14230;45.382;10.998;2022-09-03T17:58:43;24.70;99.90
26583;DHT22;14230;45.382;10.998;2022-09-03T18:01:19;24.60;99.90
26583;DHT22;14230;45.382;10.998;2022-09-03T18:09:19;24.40;99.90
26583;DHT22;14230;45.382;10.998;2022-09-03T18:11:40;24.40;99.90
26583;DHT22;14230;45.382;10.998;2022-09-03T18:14:27;24.30;99.90
26583;DHT22;14230;45.382;10.998;2022-09-03T18:19:53;24.10;99.90
26583;DHT22;14230;45.382;10.998;2022-09-03T18:23:02;24.10;99.90
26583;DHT22;14230;45.382;10.998;2022-09-03T18:26:02;24.10;99.90
26583;DHT22;14230;45.382;10.998;2022-09-03T18:28:56;24.10;99.90
26583;DHT22;14230;45.382;10.998;2022-09-03T18:31:44;24.00;99.90
26583;DHT22;14230;45.382;10.998;2022-09-03T18:34:32;24.00;99.90
26583;DHT22;14230;45.382;10.998;2022-09-03T18:37:21;24.00;99.90
26583;DHT22;14230;45.382;10.998;2022-09-03T18:40:10;23.90;99.90
26583;DHT22;14230;45.382;10.998;2022-09-03T18:49:47;23.80;99.90
26583;DHT22;14230;45.382;10.998;2022-09-03T18:55:45;23.60;99.90
26583;DHT22;14230;45.382;10.998;2022-09-03T19:01:46;23.60;99.90
26583;DHT22;14230;45.382;10.998;2022-09-03T19:10:53;23.50;99.90
26583;DHT22;14230;45.382;10.998;2022-09-03T19:13:41;23.40;99.90
26583;DHT22;14230;45.382;10.998;2022-09-03T19:22:43;23.40;99.90
26583;DHT22;14230;45.382;10.998;2022-09-03T19:25:30;23.20;99.90
26583;DHT22;14230;45.382;10.998;2022-09-03T19:28:21;23.30;99.90
26583;DHT22;14230;45.382;10.998;2022-09-03T19:43:51;23.20;99.90
26583;DHT22;14230;45.382;10.998;2022-09-03T19:46:58;23.30;99.90
26583;DHT22;14230;45.382;10.998;2022-09-03T19:50:08;23.30;99.90
26583;DHT22;14230;45.382;10.998;2022-09-03T19:53:05;23.20;99.90
26583;DHT22;14230;45.382;10.998;2022-09-03T19:55:59;23.20;99.90
26583;DHT22;14230;45.382;10.998;2022-09-03T19:58:49;23.10;99.90
26583;DHT22;14230;45.382;10.998;2022-09-03T20:01:39;23.10;99.90
26583;DHT22;14230;45.382;10.998;2022-09-03T20:04:37;23.10;99.90
26583;DHT22;14230;45.382;10.998;2022-09-03T20:07:24;23.10;99.90
26583;DHT22;14230;45.382;10.998;2022-09-03T20:10:12;23.10;99.90
26583;DHT22;14230;45.382;10.998;2022-09-03T20:15:48;23.10;99.90
26583;DHT22;14230;45.382;10.998;2022-09-03T20:26:56;23.00;99.90
26583;DHT22;14230;45.382;10.998;2022-09-03T20:32:53;22.90;99.90
26583;DHT22;14230;45.382;10.998;2022-09-03T20:41:27;22.90;99.90
26583;DHT22;14230;45.382;10.998;2022-09-03T20:44:15;22.90;99.90
26583;DHT22;14230;45.382;10.998;2022-09-03T20:47:09;22.90;99.90
26583;DHT22;14230;45.382;10.998;2022-09-03T20:49:46;22.80;99.90
26583;DHT22;14230;45.382;10.998;2022-09-03T20:52:53;22.90;99.90
26583;DHT22;14230;45.382;10.998;2022-09-03T20:55:28;22.80;99.90
26583;DHT22;14230;45.382;10.998;2022-09-03T20:58:25;22.80;99.90
26583;DHT22;14230;45.382;10.998;2022-09-03T21:01:22;22.80;99.90
26583;DHT22;14230;45.382;10.998;2022-09-03T21:04:16;22.80;99.90
26583;DHT22;14230;45.382;10.998;2022-09-03T21:07:28;22.80;99.90
26583;DHT22;14230;45.382;10.998;2022-09-03T21:10:14;22.80;99.90
26583;DHT22;14230;45.382;10.998;2022-09-03T21:18:41;22.90;99.90
26583;DHT22;14230;45.382;10.998;2022-09-03T21:24:13;22.80;99.90
26583;DHT22;14230;45.382;10.998;2022-09-03T21:26:46;22.80;99.90
26583;DHT22;14230;45.382;10.998;2022-09-03T21:31:51;22.80;99.90
26583;DHT22;14230;45.382;10.998;2022-09-03T21:34:28;22.60;99.90
26583;DHT22;14230;45.382;10.998;2022-09-03T21:36:58;22.60;99.90
26583;DHT22;14230;45.382;10.998;2022-09-03T21:39:41;22.60;99.90
26583;DHT22;14230;45.382;10.998;2022-09-03T21:45:36;22.60;99.90
26583;DHT22;14230;45.382;10.998;2022-09-03T21:48:09;22.70;99.90
26583;DHT22;14230;45.382;10.998;2022-09-03T21:53:19;22.60;99.90
26583;DHT22;14230;45.382;10.998;2022-09-03T22:01:42;22.60;99.90